sensor_id;sensor_type;location;lat;lon;timestamp;temperature;humidity
46932;DHT22;32670;51.464;11.964;2023-06-26T00:01:30;25.80;57.00
46932;DHT22;32670;51.464;11.964;2023-06-26T00:03:59;25.70;57.00
46932;DHT22;32670;51.464;11.964;2023-06-26T00:06:25;25.70;57.60
46932;DHT22;32670;51.464;11.964;2023-06-26T00:08:52;25.70;57.10
46932;DHT22;32670;51.464;11.964;2023-06-26T00:11:18;25.70;57.10
46932;DHT22;32670;51.464;11.964;2023-06-26T00:13:44;25.70;57.10
46932;DHT22;32670;51.464;11.964;2023-06-26T00:16:09;25.70;57.10
46932;DHT22;32670;51.464;11.964;2023-06-26T00:18:35;25.70;57.10
46932;DHT22;32670;51.464;11.964;2023-06-26T00:21:00;25.70;57.10
46932;DHT22;32670;51.464;11.964;2023-06-26T00:23:25;25.70;57.10
46932;DHT22;32670;51.464;11.964;2023-06-26T00:25:52;25.70;57.20
46932;DHT22;32670;51.464;11.964;2023-06-26T00:28:18;25.70;57.20
46932;DHT22;32670;51.464;11.964;2023-06-26T00:30:43;25.70;57.20
46932;DHT22;32670;51.464;11.964;2023-06-26T00:33:09;25.70;57.20
46932;DHT22;32670;51.464;11.964;2023-06-26T00:35:34;25.70;57.30
46932;DHT22;32670;51.464;11.964;2023-06-26T00:38:01;25.70;57.30
46932;DHT22;32670;51.464;11.964;2023-06-26T00:40:26;25.70;57.20
46932;DHT22;32670;51.464;11.964;2023-06-26T00:42:52;25.70;57.30
46932;DHT22;32670;51.464;11.964;2023-06-26T00:45:18;25.70;57.30
46932;DHT22;32670;51.464;11.964;2023-06-26T00:47:43;25.70;57.30
46932;DHT22;32670;51.464;11.964;2023-06-26T00:50:09;25.70;57.30
46932;DHT22;32670;51.464;11.964;2023-06-26T00:52:36;25.70;57.90
46932;DHT22;32670;51.464;11.964;2023-06-26T00:55:01;25.70;57.90
46932;DHT22;32670;51.464;11.964;2023-06-26T00:57:27;25.70;57.50
46932;DHT22;32670;51.464;11.964;2023-06-26T00:59:53;25.70;57.40
46932;DHT22;32670;51.464;11.964;2023-06-26T01:02:18;25.70;57.40
46932;DHT22;32670;51.464;11.964;2023-06-26T01:04:47;25.70;57.50
46932;DHT22;32670;51.464;11.964;2023-06-26T01:07:13;25.70;57.50
46932;DHT22;32670;51.464;11.964;2023-06-26T01:09:40;25.60;57.50
46932;DHT22;32670;51.464;11.964;2023-06-26T01:12:06;25.70;57.50
46932;DHT22;32670;51.464;11.964;2023-06-26T01:14:33;25.70;57.60
46932;DHT22;32670;51.464;11.964;2023-06-26T01:17:00;25.60;57.50
46932;DHT22;32670;51.464;11.964;2023-06-26T01:19:29;25.60;57.50
46932;DHT22;32670;51.464;11.964;2023-06-26T01:22:36;25.60;57.60
46932;DHT22;32670;51.464;11.964;2023-06-26T01:27:50;25.60;57.60
46932;DHT22;32670;51.464;11.964;2023-06-26T01:30:18;25.60;57.60
46932;DHT22;32670;51.464;11.964;2023-06-26T01:32:45;25.60;57.70
46932;DHT22;32670;51.464;11.964;2023-06-26T01:35:11;25.60;57.60
46932;DHT22;32670;51.464;11.964;2023-06-26T01:37:37;25.60;57.70
46932;DHT22;32670;51.464;11.964;2023-06-26T01:40:03;25.60;57.80
46932;DHT22;32670;51.464;11.964;2023-06-26T01:42:31;25.60;57.70
46932;DHT22;32670;51.464;11.964;2023-06-26T01:44:57;25.50;57.90
46932;DHT22;32670;51.464;11.964;2023-06-26T01:47:25;25.50;57.90
46932;DHT22;32670;51.464;11.964;2023-06-26T01:50:09;25.60;57.70
46932;DHT22;32670;51.464;11.964;2023-06-26T01:52:40;25.60;57.90
46932;DHT22;32670;51.464;11.964;2023-06-26T01:55:17;25.60;58.00
46932;DHT22;32670;51.464;11.964;2023-06-26T01:57:46;25.60;57.90
46932;DHT22;32670;51.464;11.964;2023-06-26T02:00:14;25.50;57.80
46932;DHT22;32670;51.464;11.964;2023-06-26T02:02:43;25.50;57.90
46932;DHT22;32670;51.464;11.964;2023-06-26T02:05:08;25.50;57.90
46932;DHT22;32670;51.464;11.964;2023-06-26T02:07:34;25.50;58.00
46932;DHT22;32670;51.464;11.964;2023-06-26T02:09:59;25.50;57.90
46932;DHT22;32670;51.464;11.964;2023-06-26T02:12:25;25.50;57.90
46932;DHT22;32670;51.464;11.964;2023-06-26T02:14:50;25.50;57.90
46932;DHT22;32670;51.464;11.964;2023-06-26T02:17:16;25.50;58.00
46932;DHT22;32670;51.464;11.964;2023-06-26T02:19:42;25.50;58.00
46932;DHT22;32670;51.464;11.964;2023-06-26T02:22:13;25.50;58.10
46932;DHT22;32670;51.464;11.964;2023-06-26T02:24:39;25.50;58.30
46932;DHT22;32670;51.464;11.964;2023-06-26T02:27:04;25.50;58.20
46932;DHT22;32670;51.464;11.964;2023-06-26T02:29:30;25.50;58.30
46932;DHT22;32670;51.464;11.964;2023-06-26T02:31:55;25.50;58.40
46932;DHT22;32670;51.464;11.964;2023-06-26T02:34:21;25.50;58.50
46932;DHT22;32670;51.464;11.964;2023-06-26T02:36:46;25.40;58.50
46932;DHT22;32670;51.464;11.964;2023-06-26T02:39:11;25.40;58.50
46932;DHT22;32670;51.464;11.964;2023-06-26T02:41:37;25.50;58.60
46932;DHT22;32670;51.464;11.964;2023-06-26T02:44:03;25.40;58.60
46932;DHT22;32670;51.464;11.964;2023-06-26T02:46:28;25.50;58.60
46932;DHT22;32670;51.464;11.964;2023-06-26T02:48:54;25.40;58.50
46932;DHT22;32670;51.464;11.964;2023-06-26T02:51:19;25.40;58.50
46932;DHT22;32670;51.464;11.964;2023-06-26T02:53:45;25.40;58.50
46932;DHT22;32670;51.464;11.964;2023-06-26T02:56:10;25.40;58.60
46932;DHT22;32670;51.464;11.964;2023-06-26T02:58:36;25.40;58.60
46932;DHT22;32670;51.464;11.964;2023-06-26T03:01:01;25.30;58.50
46932;DHT22;32670;51.464;11.964;2023-06-26T03:03:27;25.40;59.20
46932;DHT22;32670;51.464;11.964;2023-06-26T03:05:52;25.30;58.60
46932;DHT22;32670;51.464;11.964;2023-06-26T03:08:17;25.30;58.50
46932;DHT22;32670;51.464;11.964;2023-06-26T03:10:43;25.30;58.50
46932;DHT22;32670;51.464;11.964;2023-06-26T03:13:08;25.30;58.40
46932;DHT22;32670;51.464;11.964;2023-06-26T03:15:34;25.30;58.40
46932;DHT22;32670;51.464;11.964;2023-06-26T03:17:59;25.30;58.40
46932;DHT22;32670;51.464;11.964;2023-06-26T03:20:25;25.30;58.40
46932;DHT22;32670;51.464;11.964;2023-06-26T03:22:50;25.30;58.60
46932;DHT22;32670;51.464;11.964;2023-06-26T03:25:15;25.20;58.40
46932;DHT22;32670;51.464;11.964;2023-06-26T03:27:41;25.20;58.40
46932;DHT22;32670;51.464;11.964;2023-06-26T03:30:07;25.20;58.40
46932;DHT22;32670;51.464;11.964;2023-06-26T03:32:32;25.20;58.50
46932;DHT22;32670;51.464;11.964;2023-06-26T03:34:58;25.20;58.60
46932;DHT22;32670;51.464;11.964;2023-06-26T03:37:23;25.20;58.70
46932;DHT22;32670;51.464;11.964;2023-06-26T03:39:48;25.20;58.80
46932;DHT22;32670;51.464;11.964;2023-06-26T03:42:14;25.20;58.90
46932;DHT22;32670;51.464;11.964;2023-06-26T03:44:40;25.20;59.00
46932;DHT22;32670;51.464;11.964;2023-06-26T03:47:05;25.20;59.00
46932;DHT22;32670;51.464;11.964;2023-06-26T03:49:31;25.20;59.00
46932;DHT22;32670;51.464;11.964;2023-06-26T03:51:56;25.20;59.00
46932;DHT22;32670;51.464;11.964;2023-06-26T03:54:22;25.20;59.00
46932;DHT22;32670;51.464;11.964;2023-06-26T03:56:47;25.20;59.00
46932;DHT22;32670;51.464;11.964;2023-06-26T03:59:13;25.10;58.90
46932;DHT22;32670;51.464;11.964;2023-06-26T04:01:38;25.10;58.90
46932;DHT22;32670;51.464;11.964;2023-06-26T04:04:04;25.10;59.40
46932;DHT22;32670;51.464;11.964;2023-06-26T04:06:29;25.10;58.90
46932;DHT22;32670;51.464;11.964;2023-06-26T04:08:57;25.10;58.90
46932;DHT22;32670;51.464;11.964;2023-06-26T04:11:22;25.10;59.00
46932;DHT22;32670;51.464;11.964;2023-06-26T04:13:48;25.10;59.00
46932;DHT22;32670;51.464;11.964;2023-06-26T04:16:13;25.10;59.00
46932;DHT22;32670;51.464;11.964;2023-06-26T04:18:39;25.10;59.10
46932;DHT22;32670;51.464;11.964;2023-06-26T04:21:13;25.10;59.10
46932;DHT22;32670;51.464;11.964;2023-06-26T04:23:42;25.10;59.10
46932;DHT22;32670;51.464;11.964;2023-06-26T04:26:08;25.10;59.00
46932;DHT22;32670;51.464;11.964;2023-06-26T04:28:34;25.10;59.10
46932;DHT22;32670;51.464;11.964;2023-06-26T04:31:01;25.10;59.00
46932;DHT22;32670;51.464;11.964;2023-06-26T04:33:27;25.10;59.20
46932;DHT22;32670;51.464;11.964;2023-06-26T04:35:53;25.10;59.30
46932;DHT22;32670;51.464;11.964;2023-06-26T04:38:19;25.10;59.30
46932;DHT22;32670;51.464;11.964;2023-06-26T04:40:44;25.10;59.20
46932;DHT22;32670;51.464;11.964;2023-06-26T04:43:10;25.10;59.20
46932;DHT22;32670;51.464;11.964;2023-06-26T04:45:36;25.10;59.20
46932;DHT22;32670;51.464;11.964;2023-06-26T04:48:02;25.10;59.10
46932;DHT22;32670;51.464;11.964;2023-06-26T04:50:27;25.10;59.10
46932;DHT22;32670;51.464;11.964;2023-06-26T04:52:54;25.10;59.80
46932;DHT22;32670;51.464;11.964;2023-06-26T04:55:20;25.10;59.30
46932;DHT22;32670;51.464;11.964;2023-06-26T04:57:46;25.10;59.20
46932;DHT22;32670;51.464;11.964;2023-06-26T05:00:13;25.10;59.20
46932;DHT22;32670;51.464;11.964;2023-06-26T05:02:38;25.10;59.20
46932;DHT22;32670;51.464;11.964;2023-06-26T05:05:04;25.10;59.10
46932;DHT22;32670;51.464;11.964;2023-06-26T05:07:29;25.10;59.10
46932;DHT22;32670;51.464;11.964;2023-06-26T05:09:55;25.00;59.00
46932;DHT22;32670;51.464;11.964;2023-06-26T05:12:21;25.00;59.20
46932;DHT22;32670;51.464;11.964;2023-06-26T05:14:46;25.00;59.10
46932;DHT22;32670;51.464;11.964;2023-06-26T05:17:14;25.10;59.10
46932;DHT22;32670;51.464;11.964;2023-06-26T05:19:39;25.10;59.10
46932;DHT22;32670;51.464;11.964;2023-06-26T05:22:06;25.10;59.10
46932;DHT22;32670;51.464;11.964;2023-06-26T05:24:37;25.10;59.10
46932;DHT22;32670;51.464;11.964;2023-06-26T05:27:03;25.10;59.40
46932;DHT22;32670;51.464;11.964;2023-06-26T05:29:30;25.10;59.50
46932;DHT22;32670;51.464;11.964;2023-06-26T05:31:56;25.20;59.30
46932;DHT22;32670;51.464;11.964;2023-06-26T05:34:25;25.20;59.40
46932;DHT22;32670;51.464;11.964;2023-06-26T05:36:57;25.20;59.40
46932;DHT22;32670;51.464;11.964;2023-06-26T05:39:23;25.20;59.10
46932;DHT22;32670;51.464;11.964;2023-06-26T05:41:49;25.20;58.90
46932;DHT22;32670;51.464;11.964;2023-06-26T05:44:15;25.20;58.80
46932;DHT22;32670;51.464;11.964;2023-06-26T05:46:40;25.20;58.80
46932;DHT22;32670;51.464;11.964;2023-06-26T05:49:06;25.20;58.70
46932;DHT22;32670;51.464;11.964;2023-06-26T05:51:32;25.20;58.70
46932;DHT22;32670;51.464;11.964;2023-06-26T05:53:58;25.20;58.70
46932;DHT22;32670;51.464;11.964;2023-06-26T05:56:24;25.20;58.80
46932;DHT22;32670;51.464;11.964;2023-06-26T05:58:50;25.10;58.80
46932;DHT22;32670;51.464;11.964;2023-06-26T06:01:17;25.10;58.80
46932;DHT22;32670;51.464;11.964;2023-06-26T06:03:42;25.20;58.90
46932;DHT22;32670;51.464;11.964;2023-06-26T06:06:08;25.10;58.90
46932;DHT22;32670;51.464;11.964;2023-06-26T06:08:33;25.20;59.10
46932;DHT22;32670;51.464;11.964;2023-06-26T06:11:00;25.10;59.10
46932;DHT22;32670;51.464;11.964;2023-06-26T06:13:26;25.20;59.20
46932;DHT22;32670;51.464;11.964;2023-06-26T06:15:51;25.20;59.20
46932;DHT22;32670;51.464;11.964;2023-06-26T06:18:17;25.10;59.10
46932;DHT22;32670;51.464;11.964;2023-06-26T06:20:42;25.10;59.10
46932;DHT22;32670;51.464;11.964;2023-06-26T06:23:08;25.20;59.60
46932;DHT22;32670;51.464;11.964;2023-06-26T06:25:33;25.10;59.20
46932;DHT22;32670;51.464;11.964;2023-06-26T06:27:58;25.20;59.40
46932;DHT22;32670;51.464;11.964;2023-06-26T06:30:24;25.10;59.70
46932;DHT22;32670;51.464;11.964;2023-06-26T06:32:49;25.20;59.60
46932;DHT22;32670;51.464;11.964;2023-06-26T06:35:20;25.20;59.50
46932;DHT22;32670;51.464;11.964;2023-06-26T06:37:46;25.20;59.30
46932;DHT22;32670;51.464;11.964;2023-06-26T06:40:12;25.30;59.20
46932;DHT22;32670;51.464;11.964;2023-06-26T06:42:37;25.30;59.10
46932;DHT22;32670;51.464;11.964;2023-06-26T06:45:04;25.30;58.90
46932;DHT22;32670;51.464;11.964;2023-06-26T06:47:30;25.30;58.80
46932;DHT22;32670;51.464;11.964;2023-06-26T06:49:55;25.30;58.70
46932;DHT22;32670;51.464;11.964;2023-06-26T06:52:21;25.30;58.70
46932;DHT22;32670;51.464;11.964;2023-06-26T06:54:55;25.30;58.60
46932;DHT22;32670;51.464;11.964;2023-06-26T06:57:21;25.40;58.70
46932;DHT22;32670;51.464;11.964;2023-06-26T06:59:47;25.40;58.60
46932;DHT22;32670;51.464;11.964;2023-06-26T07:02:14;25.40;58.50
46932;DHT22;32670;51.464;11.964;2023-06-26T07:04:40;25.30;58.40
46932;DHT22;32670;51.464;11.964;2023-06-26T07:07:06;25.40;58.50
46932;DHT22;32670;51.464;11.964;2023-06-26T07:09:31;25.40;58.50
46932;DHT22;32670;51.464;11.964;2023-06-26T07:11:57;25.40;58.40
46932;DHT22;32670;51.464;11.964;2023-06-26T07:14:23;25.40;58.40
46932;DHT22;32670;51.464;11.964;2023-06-26T07:16:48;25.40;58.40
46932;DHT22;32670;51.464;11.964;2023-06-26T07:19:14;25.40;58.40
46932;DHT22;32670;51.464;11.964;2023-06-26T07:21:39;25.40;58.30
46932;DHT22;32670;51.464;11.964;2023-06-26T07:24:06;25.40;58.20
46932;DHT22;32670;51.464;11.964;2023-06-26T07:26:32;25.40;58.20
46932;DHT22;32670;51.464;11.964;2023-06-26T07:28:57;25.40;58.20
46932;DHT22;32670;51.464;11.964;2023-06-26T07:31:22;25.40;58.20
46932;DHT22;32670;51.464;11.964;2023-06-26T07:33:48;25.50;58.20
46932;DHT22;32670;51.464;11.964;2023-06-26T07:36:13;25.40;58.10
46932;DHT22;32670;51.464;11.964;2023-06-26T07:38:39;25.40;58.10
46932;DHT22;32670;51.464;11.964;2023-06-26T07:41:04;25.50;58.10
46932;DHT22;32670;51.464;11.964;2023-06-26T07:43:30;25.50;58.10
46932;DHT22;32670;51.464;11.964;2023-06-26T07:45:56;25.50;58.00
46932;DHT22;32670;51.464;11.964;2023-06-26T07:48:24;25.50;58.00
46932;DHT22;32670;51.464;11.964;2023-06-26T07:50:49;25.50;58.00
46932;DHT22;32670;51.464;11.964;2023-06-26T07:53:15;25.50;57.90
46932;DHT22;32670;51.464;11.964;2023-06-26T07:55:40;25.50;57.90
46932;DHT22;32670;51.464;11.964;2023-06-26T07:58:06;25.50;57.90
46932;DHT22;32670;51.464;11.964;2023-06-26T08:00:32;25.50;57.90
46932;DHT22;32670;51.464;11.964;2023-06-26T08:02:57;25.50;57.90
46932;DHT22;32670;51.464;11.964;2023-06-26T08:05:23;25.50;57.90
46932;DHT22;32670;51.464;11.964;2023-06-26T08:07:48;25.50;57.90
46932;DHT22;32670;51.464;11.964;2023-06-26T08:10:14;25.50;57.90
46932;DHT22;32670;51.464;11.964;2023-06-26T08:12:39;25.50;57.90
46932;DHT22;32670;51.464;11.964;2023-06-26T08:15:06;25.50;57.90
46932;DHT22;32670;51.464;11.964;2023-06-26T08:17:31;25.50;57.90
46932;DHT22;32670;51.464;11.964;2023-06-26T08:19:57;25.50;57.80
46932;DHT22;32670;51.464;11.964;2023-06-26T08:22:23;25.50;57.80
46932;DHT22;32670;51.464;11.964;2023-06-26T08:24:48;25.50;57.80
46932;DHT22;32670;51.464;11.964;2023-06-26T08:27:14;25.50;57.80
46932;DHT22;32670;51.464;11.964;2023-06-26T08:29:39;25.50;57.70
46932;DHT22;32670;51.464;11.964;2023-06-26T08:32:05;25.50;57.70
46932;DHT22;32670;51.464;11.964;2023-06-26T08:34:30;25.50;57.70
46932;DHT22;32670;51.464;11.964;2023-06-26T08:36:56;25.50;57.70
46932;DHT22;32670;51.464;11.964;2023-06-26T08:39:21;25.50;57.70
46932;DHT22;32670;51.464;11.964;2023-06-26T08:41:47;25.50;57.70
46932;DHT22;32670;51.464;11.964;2023-06-26T08:44:12;25.50;57.60
46932;DHT22;32670;51.464;11.964;2023-06-26T08:46:38;25.50;57.60
46932;DHT22;32670;51.464;11.964;2023-06-26T08:49:14;25.50;57.60
46932;DHT22;32670;51.464;11.964;2023-06-26T08:51:43;25.50;57.60
46932;DHT22;32670;51.464;11.964;2023-06-26T08:54:12;25.50;57.80
46932;DHT22;32670;51.464;11.964;2023-06-26T08:56:42;25.50;57.80
46932;DHT22;32670;51.464;11.964;2023-06-26T08:59:09;25.60;57.80
46932;DHT22;32670;51.464;11.964;2023-06-26T09:01:40;25.50;57.90
46932;DHT22;32670;51.464;11.964;2023-06-26T09:04:05;25.60;57.90
46932;DHT22;32670;51.464;11.964;2023-06-26T09:06:32;25.60;57.90
46932;DHT22;32670;51.464;11.964;2023-06-26T09:08:58;25.60;57.80
46932;DHT22;32670;51.464;11.964;2023-06-26T09:11:23;25.60;57.80
46932;DHT22;32670;51.464;11.964;2023-06-26T09:13:49;25.60;57.80
46932;DHT22;32670;51.464;11.964;2023-06-26T09:16:14;25.50;57.70
46932;DHT22;32670;51.464;11.964;2023-06-26T09:18:45;25.60;57.70
46932;DHT22;32670;51.464;11.964;2023-06-26T09:21:11;25.60;57.70
46932;DHT22;32670;51.464;11.964;2023-06-26T09:23:36;25.60;57.70
46932;DHT22;32670;51.464;11.964;2023-06-26T09:26:05;25.60;57.70
46932;DHT22;32670;51.464;11.964;2023-06-26T09:28:35;25.60;57.70
46932;DHT22;32670;51.464;11.964;2023-06-26T09:31:05;25.60;57.60
46932;DHT22;32670;51.464;11.964;2023-06-26T09:33:37;25.60;57.60
46932;DHT22;32670;51.464;11.964;2023-06-26T09:36:07;25.60;57.60
46932;DHT22;32670;51.464;11.964;2023-06-26T09:38:35;25.60;57.60
46932;DHT22;32670;51.464;11.964;2023-06-26T09:41:02;25.60;57.60
46932;DHT22;32670;51.464;11.964;2023-06-26T09:43:28;25.60;57.60
46932;DHT22;32670;51.464;11.964;2023-06-26T09:45:53;25.60;57.60
46932;DHT22;32670;51.464;11.964;2023-06-26T09:48:19;25.60;57.50
46932;DHT22;32670;51.464;11.964;2023-06-26T09:50:46;25.60;57.50
46932;DHT22;32670;51.464;11.964;2023-06-26T09:53:12;25.60;57.50
46932;DHT22;32670;51.464;11.964;2023-06-26T09:55:43;25.60;57.50
46932;DHT22;32670;51.464;11.964;2023-06-26T09:58:11;25.60;57.50
46932;DHT22;32670;51.464;11.964;2023-06-26T10:00:40;25.60;57.50
46932;DHT22;32670;51.464;11.964;2023-06-26T10:03:06;25.70;57.50
46932;DHT22;32670;51.464;11.964;2023-06-26T10:05:31;25.60;57.40
46932;DHT22;32670;51.464;11.964;2023-06-26T10:07:57;25.70;57.50
46932;DHT22;32670;51.464;11.964;2023-06-26T10:10:24;25.70;57.50
46932;DHT22;32670;51.464;11.964;2023-06-26T10:12:57;25.70;57.50
46932;DHT22;32670;51.464;11.964;2023-06-26T10:15:25;25.70;57.40
46932;DHT22;32670;51.464;11.964;2023-06-26T10:17:54;25.70;57.40
46932;DHT22;32670;51.464;11.964;2023-06-26T10:20:20;25.60;57.30
46932;DHT22;32670;51.464;11.964;2023-06-26T10:22:46;25.70;57.40
46932;DHT22;32670;51.464;11.964;2023-06-26T10:25:16;25.70;57.40
46932;DHT22;32670;51.464;11.964;2023-06-26T10:27:45;25.70;57.40
46932;DHT22;32670;51.464;11.964;2023-06-26T10:30:17;25.70;57.40
46932;DHT22;32670;51.464;11.964;2023-06-26T10:32:45;25.70;57.40
46932;DHT22;32670;51.464;11.964;2023-06-26T10:35:12;25.70;57.40
46932;DHT22;32670;51.464;11.964;2023-06-26T10:37:45;25.70;57.40
46932;DHT22;32670;51.464;11.964;2023-06-26T10:40:11;25.70;57.40
46932;DHT22;32670;51.464;11.964;2023-06-26T10:42:38;25.70;57.30
46932;DHT22;32670;51.464;11.964;2023-06-26T10:45:14;25.70;57.30
46932;DHT22;32670;51.464;11.964;2023-06-26T10:47:41;25.70;57.30
46932;DHT22;32670;51.464;11.964;2023-06-26T10:52:45;25.70;57.30
46932;DHT22;32670;51.464;11.964;2023-06-26T10:55:11;25.70;57.30
46932;DHT22;32670;51.464;11.964;2023-06-26T10:57:37;25.70;57.30
46932;DHT22;32670;51.464;11.964;2023-06-26T11:00:11;25.70;57.20
46932;DHT22;32670;51.464;11.964;2023-06-26T11:02:51;25.70;57.20
46932;DHT22;32670;51.464;11.964;2023-06-26T11:05:28;25.80;57.30
46932;DHT22;32670;51.464;11.964;2023-06-26T11:08:09;25.70;57.20
46932;DHT22;32670;51.464;11.964;2023-06-26T11:10:52;25.70;57.20
46932;DHT22;32670;51.464;11.964;2023-06-26T11:13:19;25.70;57.20
46932;DHT22;32670;51.464;11.964;2023-06-26T11:15:46;25.80;57.20
46932;DHT22;32670;51.464;11.964;2023-06-26T11:18:12;25.80;57.20
46932;DHT22;32670;51.464;11.964;2023-06-26T11:20:38;25.80;57.20
46932;DHT22;32670;51.464;11.964;2023-06-26T11:23:04;25.80;57.20
46932;DHT22;32670;51.464;11.964;2023-06-26T11:25:37;25.80;57.20
46932;DHT22;32670;51.464;11.964;2023-06-26T11:28:09;25.70;57.10
46932;DHT22;32670;51.464;11.964;2023-06-26T11:30:34;25.80;57.20
46932;DHT22;32670;51.464;11.964;2023-06-26T11:33:07;25.80;57.20
46932;DHT22;32670;51.464;11.964;2023-06-26T11:35:33;25.80;57.10
46932;DHT22;32670;51.464;11.964;2023-06-26T11:38:02;25.80;57.20
46932;DHT22;32670;51.464;11.964;2023-06-26T11:40:35;25.80;57.10
46932;DHT22;32670;51.464;11.964;2023-06-26T11:43:02;25.80;57.10
46932;DHT22;32670;51.464;11.964;2023-06-26T11:45:29;25.80;57.10
46932;DHT22;32670;51.464;11.964;2023-06-26T11:47:56;25.80;57.10
46932;DHT22;32670;51.464;11.964;2023-06-26T11:50:22;25.80;57.10
46932;DHT22;32670;51.464;11.964;2023-06-26T11:52:55;25.80;57.10
46932;DHT22;32670;51.464;11.964;2023-06-26T11:55:21;25.80;57.10
46932;DHT22;32670;51.464;11.964;2023-06-26T11:57:52;25.80;57.10
46932;DHT22;32670;51.464;11.964;2023-06-26T12:00:18;25.80;57.10
46932;DHT22;32670;51.464;11.964;2023-06-26T12:02:45;25.80;57.10
46932;DHT22;32670;51.464;11.964;2023-06-26T12:05:12;25.80;57.10
46932;DHT22;32670;51.464;11.964;2023-06-26T12:07:38;25.80;57.00
46932;DHT22;32670;51.464;11.964;2023-06-26T12:10:04;25.80;57.00
46932;DHT22;32670;51.464;11.964;2023-06-26T12:12:30;25.80;57.10
46932;DHT22;32670;51.464;11.964;2023-06-26T12:14:57;25.80;57.20
46932;DHT22;32670;51.464;11.964;2023-06-26T12:17:23;25.80;57.30
46932;DHT22;32670;51.464;11.964;2023-06-26T12:19:50;25.80;57.20
46932;DHT22;32670;51.464;11.964;2023-06-26T12:22:16;25.80;57.20
46932;DHT22;32670;51.464;11.964;2023-06-26T12:24:43;25.80;57.10
46932;DHT22;32670;51.464;11.964;2023-06-26T12:27:11;25.80;57.10
46932;DHT22;32670;51.464;11.964;2023-06-26T12:29:38;25.80;57.10
46932;DHT22;32670;51.464;11.964;2023-06-26T12:32:08;25.90;57.20
46932;DHT22;32670;51.464;11.964;2023-06-26T12:34:36;25.80;57.00
46932;DHT22;32670;51.464;11.964;2023-06-26T12:37:09;25.80;57.10
46932;DHT22;32670;51.464;11.964;2023-06-26T12:39:57;25.80;57.00
46932;DHT22;32670;51.464;11.964;2023-06-26T12:42:24;25.80;57.00
46932;DHT22;32670;51.464;11.964;2023-06-26T12:44:51;25.90;57.10
46932;DHT22;32670;51.464;11.964;2023-06-26T12:47:17;25.90;57.10
46932;DHT22;32670;51.464;11.964;2023-06-26T12:49:45;25.80;57.00
46932;DHT22;32670;51.464;11.964;2023-06-26T12:52:12;25.80;57.00
46932;DHT22;32670;51.464;11.964;2023-06-26T12:54:42;25.90;57.00
46932;DHT22;32670;51.464;11.964;2023-06-26T12:57:08;25.90;57.10
46932;DHT22;32670;51.464;11.964;2023-06-26T12:59:38;25.90;57.00
46932;DHT22;32670;51.464;11.964;2023-06-26T13:02:04;25.90;57.00
46932;DHT22;32670;51.464;11.964;2023-06-26T13:04:30;25.90;57.00
46932;DHT22;32670;51.464;11.964;2023-06-26T13:06:56;25.90;57.00
46932;DHT22;32670;51.464;11.964;2023-06-26T13:09:25;25.90;57.00
46932;DHT22;32670;51.464;11.964;2023-06-26T13:11:54;25.90;57.00
46932;DHT22;32670;51.464;11.964;2023-06-26T13:14:20;25.90;57.00
46932;DHT22;32670;51.464;11.964;2023-06-26T13:16:46;25.90;57.00
46932;DHT22;32670;51.464;11.964;2023-06-26T13:19:11;25.90;57.00
46932;DHT22;32670;51.464;11.964;2023-06-26T13:21:38;25.90;56.90
46932;DHT22;32670;51.464;11.964;2023-06-26T13:24:04;25.90;56.90
46932;DHT22;32670;51.464;11.964;2023-06-26T13:26:30;25.90;56.90
46932;DHT22;32670;51.464;11.964;2023-06-26T13:28:57;25.90;56.90
46932;DHT22;32670;51.464;11.964;2023-06-26T13:31:22;25.90;56.90
46932;DHT22;32670;51.464;11.964;2023-06-26T13:33:48;25.90;56.90
46932;DHT22;32670;51.464;11.964;2023-06-26T13:36:18;25.90;56.90
46932;DHT22;32670;51.464;11.964;2023-06-26T13:38:43;25.90;56.90
46932;DHT22;32670;51.464;11.964;2023-06-26T13:41:09;25.90;56.90
46932;DHT22;32670;51.464;11.964;2023-06-26T13:43:35;25.90;57.00
46932;DHT22;32670;51.464;11.964;2023-06-26T13:46:01;25.90;57.00
46932;DHT22;32670;51.464;11.964;2023-06-26T13:48:26;25.90;57.30
46932;DHT22;32670;51.464;11.964;2023-06-26T13:50:52;25.90;57.30
46932;DHT22;32670;51.464;11.964;2023-06-26T13:53:18;26.00;57.50
46932;DHT22;32670;51.464;11.964;2023-06-26T13:55:44;25.90;57.40
46932;DHT22;32670;51.464;11.964;2023-06-26T13:58:10;25.90;57.40
46932;DHT22;32670;51.464;11.964;2023-06-26T14:00:36;26.00;57.50
46932;DHT22;32670;51.464;11.964;2023-06-26T14:03:04;25.90;57.40
46932;DHT22;32670;51.464;11.964;2023-06-26T14:05:30;25.90;57.40
46932;DHT22;32670;51.464;11.964;2023-06-26T14:07:55;25.90;57.40
46932;DHT22;32670;51.464;11.964;2023-06-26T14:10:22;25.90;58.00
46932;DHT22;32670;51.464;11.964;2023-06-26T14:12:47;25.90;57.40
46932;DHT22;32670;51.464;11.964;2023-06-26T14:15:13;26.00;57.50
46932;DHT22;32670;51.464;11.964;2023-06-26T14:17:38;25.90;57.40
46932;DHT22;32670;51.464;11.964;2023-06-26T14:20:08;26.00;57.50
46932;DHT22;32670;51.464;11.964;2023-06-26T14:22:36;26.00;57.50
46932;DHT22;32670;51.464;11.964;2023-06-26T14:25:02;26.00;57.50
46932;DHT22;32670;51.464;11.964;2023-06-26T14:27:28;26.00;57.50
46932;DHT22;32670;51.464;11.964;2023-06-26T14:29:53;26.00;57.50
46932;DHT22;32670;51.464;11.964;2023-06-26T14:32:19;26.00;57.50
46932;DHT22;32670;51.464;11.964;2023-06-26T14:34:44;26.00;57.50
46932;DHT22;32670;51.464;11.964;2023-06-26T14:37:09;26.00;57.60
46932;DHT22;32670;51.464;11.964;2023-06-26T14:39:35;26.00;57.50
46932;DHT22;32670;51.464;11.964;2023-06-26T14:42:01;26.00;57.50
46932;DHT22;32670;51.464;11.964;2023-06-26T14:44:26;26.00;57.50
46932;DHT22;32670;51.464;11.964;2023-06-26T14:46:51;26.00;57.50
46932;DHT22;32670;51.464;11.964;2023-06-26T14:49:17;26.00;57.40
46932;DHT22;32670;51.464;11.964;2023-06-26T14:51:44;26.00;57.40
46932;DHT22;32670;51.464;11.964;2023-06-26T14:54:09;26.00;57.40
46932;DHT22;32670;51.464;11.964;2023-06-26T14:56:35;26.00;57.40
46932;DHT22;32670;51.464;11.964;2023-06-26T14:59:00;26.00;57.40
46932;DHT22;32670;51.464;11.964;2023-06-26T15:01:26;26.00;57.40
46932;DHT22;32670;51.464;11.964;2023-06-26T15:03:51;26.00;57.40
46932;DHT22;32670;51.464;11.964;2023-06-26T15:06:17;26.00;57.40
46932;DHT22;32670;51.464;11.964;2023-06-26T15:08:42;26.00;57.40
46932;DHT22;32670;51.464;11.964;2023-06-26T15:11:08;26.00;57.40
46932;DHT22;32670;51.464;11.964;2023-06-26T15:13:33;26.10;57.50
46932;DHT22;32670;51.464;11.964;2023-06-26T15:15:58;26.00;57.40
46932;DHT22;32670;51.464;11.964;2023-06-26T15:18:24;26.00;57.40